sensor_id;sensor_type;location;lat;lon;timestamp;pressure;altitude;pressure_sealevel;temperature
15607;BMP180;7865;50.918;4.510;2022-08-19T00:01:18;100922.00;;;18.10
15607;BMP180;7865;50.918;4.510;2022-08-19T00:06:34;100918.00;;;18.00
15607;BMP180;7865;50.918;4.510;2022-08-19T00:11:44;100921.00;;;18.00
15607;BMP180;7865;50.918;4.510;2022-08-19T00:16:57;100929.00;;;18.00
15607;BMP180;7865;50.918;4.510;2022-08-19T00:22:05;100935.00;;;18.00
15607;BMP180;7865;50.918;4.510;2022-08-19T00:27:11;100930.00;;;18.20
15607;BMP180;7865;50.918;4.510;2022-08-19T00:32:27;100931.00;;;18.30
15607;BMP180;7865;50.918;4.510;2022-08-19T00:37:31;100931.00;;;18.40
15607;BMP180;7865;50.918;4.510;2022-08-19T00:42:34;100928.00;;;18.40
15607;BMP180;7865;50.918;4.510;2022-08-19T00:47:36;100930.00;;;18.40
15607;BMP180;7865;50.918;4.510;2022-08-19T00:52:44;100926.00;;;18.40
15607;BMP180;7865;50.918;4.510;2022-08-19T00:57:51;100924.00;;;18.30
15607;BMP180;7865;50.918;4.510;2022-08-19T01:02:56;100923.00;;;18.20
15607;BMP180;7865;50.918;4.510;2022-08-19T01:08:00;100925.00;;;18.20
15607;BMP180;7865;50.918;4.510;2022-08-19T01:13:03;100918.00;;;18.10
15607;BMP180;7865;50.918;4.510;2022-08-19T01:18:08;100922.00;;;18.10
15607;BMP180;7865;50.918;4.510;2022-08-19T01:23:11;100912.00;;;17.90
15607;BMP180;7865;50.918;4.510;2022-08-19T01:28:20;100924.00;;;17.90
15607;BMP180;7865;50.918;4.510;2022-08-19T01:33:40;100917.00;;;17.80
15607;BMP180;7865;50.918;4.510;2022-08-19T01:38:43;100907.00;;;17.70
15607;BMP180;7865;50.918;4.510;2022-08-19T01:43:46;100900.00;;;17.70
15607;BMP180;7865;50.918;4.510;2022-08-19T01:49:08;100912.00;;;17.60
15607;BMP180;7865;50.918;4.510;2022-08-19T01:54:13;100914.00;;;17.60
15607;BMP180;7865;50.918;4.510;2022-08-19T01:59:29;100922.00;;;17.50
15607;BMP180;7865;50.918;4.510;2022-08-19T02:04:31;100918.00;;;17.40
15607;BMP180;7865;50.918;4.510;2022-08-19T02:09:34;100923.00;;;17.40
15607;BMP180;7865;50.918;4.510;2022-08-19T02:14:37;100924.00;;;17.30
15607;BMP180;7865;50.918;4.510;2022-08-19T02:19:39;100920.00;;;17.30
15607;BMP180;7865;50.918;4.510;2022-08-19T02:24:42;100912.00;;;17.40
15607;BMP180;7865;50.918;4.510;2022-08-19T02:29:45;100911.00;;;17.40
15607;BMP180;7865;50.918;4.510;2022-08-19T02:34:47;100916.00;;;17.40
15607;BMP180;7865;50.918;4.510;2022-08-19T02:39:49;100929.00;;;17.40
15607;BMP180;7865;50.918;4.510;2022-08-19T02:44:51;100924.00;;;17.30
15607;BMP180;7865;50.918;4.510;2022-08-19T02:49:53;100917.00;;;17.30
15607;BMP180;7865;50.918;4.510;2022-08-19T02:54:55;100907.00;;;17.20
15607;BMP180;7865;50.918;4.510;2022-08-19T02:59:59;100910.00;;;17.10
15607;BMP180;7865;50.918;4.510;2022-08-19T03:05:02;100916.00;;;17.00
15607;BMP180;7865;50.918;4.510;2022-08-19T03:10:05;100915.00;;;17.00
15607;BMP180;7865;50.918;4.510;2022-08-19T03:15:08;100917.00;;;16.90
15607;BMP180;7865;50.918;4.510;2022-08-19T03:20:10;100916.00;;;16.90
15607;BMP180;7865;50.918;4.510;2022-08-19T03:25:15;100922.00;;;16.90
15607;BMP180;7865;50.918;4.510;2022-08-19T03:30:17;100915.00;;;17.00
15607;BMP180;7865;50.918;4.510;2022-08-19T03:35:24;100898.00;;;17.00
15607;BMP180;7865;50.918;4.510;2022-08-19T03:40:26;100899.00;;;16.90
15607;BMP180;7865;50.918;4.510;2022-08-19T03:45:28;100902.00;;;16.90
15607;BMP180;7865;50.918;4.510;2022-08-19T03:50:30;100905.00;;;16.90
15607;BMP180;7865;50.918;4.510;2022-08-19T03:55:32;100901.00;;;16.80
15607;BMP180;7865;50.918;4.510;2022-08-19T04:00:34;100911.00;;;16.80
15607;BMP180;7865;50.918;4.510;2022-08-19T04:05:37;100913.00;;;16.80
15607;BMP180;7865;50.918;4.510;2022-08-19T04:10:39;100913.00;;;16.80
15607;BMP180;7865;50.918;4.510;2022-08-19T04:15:44;100925.00;;;16.80
15607;BMP180;7865;50.918;4.510;2022-08-19T04:20:47;100907.00;;;16.80
15607;BMP180;7865;50.918;4.510;2022-08-19T04:25:50;100908.00;;;16.80
15607;BMP180;7865;50.918;4.510;2022-08-19T04:30:53;100916.00;;;16.80
15607;BMP180;7865;50.918;4.510;2022-08-19T04:35:56;100914.00;;;16.80
15607;BMP180;7865;50.918;4.510;2022-08-19T04:40:59;100910.00;;;16.70
15607;BMP180;7865;50.918;4.510;2022-08-19T04:46:22;100913.00;;;16.60
15607;BMP180;7865;50.918;4.510;2022-08-19T04:51:43;100911.00;;;16.60
15607;BMP180;7865;50.918;4.510;2022-08-19T04:56:45;100918.00;;;16.60
15607;BMP180;7865;50.918;4.510;2022-08-19T05:01:47;100919.00;;;16.60
15607;BMP180;7865;50.918;4.510;2022-08-19T05:06:51;100939.00;;;16.60
15607;BMP180;7865;50.918;4.510;2022-08-19T05:12:02;100939.00;;;16.70
15607;BMP180;7865;50.918;4.510;2022-08-19T05:17:04;100937.00;;;16.80
15607;BMP180;7865;50.918;4.510;2022-08-19T05:22:26;100932.00;;;17.00
15607;BMP180;7865;50.918;4.510;2022-08-19T05:27:36;100939.00;;;17.20
15607;BMP180;7865;50.918;4.510;2022-08-19T05:32:39;100942.00;;;17.40
15607;BMP180;7865;50.918;4.510;2022-08-19T05:37:41;100938.00;;;17.90
15607;BMP180;7865;50.918;4.510;2022-08-19T05:42:43;100940.00;;;18.00
15607;BMP180;7865;50.918;4.510;2022-08-19T05:47:56;100927.00;;;18.20
15607;BMP180;7865;50.918;4.510;2022-08-19T05:52:57;100932.00;;;18.70
15607;BMP180;7865;50.918;4.510;2022-08-19T05:58:00;100940.00;;;19.10
15607;BMP180;7865;50.918;4.510;2022-08-19T06:03:04;100928.00;;;19.40
15607;BMP180;7865;50.918;4.510;2022-08-19T06:08:13;100937.00;;;19.70
15607;BMP180;7865;50.918;4.510;2022-08-19T06:13:15;100943.00;;;20.00
15607;BMP180;7865;50.918;4.510;2022-08-19T06:18:17;100938.00;;;20.30
15607;BMP180;7865;50.918;4.510;2022-08-19T06:23:19;100935.00;;;20.60
15607;BMP180;7865;50.918;4.510;2022-08-19T06:28:25;100941.00;;;20.80
15607;BMP180;7865;50.918;4.510;2022-08-19T06:33:27;100947.00;;;21.00
15607;BMP180;7865;50.918;4.510;2022-08-19T06:38:31;100937.00;;;21.20
15607;BMP180;7865;50.918;4.510;2022-08-19T06:43:35;100939.00;;;21.40
15607;BMP180;7865;50.918;4.510;2022-08-19T06:48:42;100938.00;;;21.70
15607;BMP180;7865;50.918;4.510;2022-08-19T06:53:48;100957.00;;;21.80
15607;BMP180;7865;50.918;4.510;2022-08-19T06:58:56;100944.00;;;21.80
15607;BMP180;7865;50.918;4.510;2022-08-19T07:03:58;100942.00;;;22.00
15607;BMP180;7865;50.918;4.510;2022-08-19T07:09:00;100954.00;;;22.30
15607;BMP180;7865;50.918;4.510;2022-08-19T07:14:03;100961.00;;;22.30
15607;BMP180;7865;50.918;4.510;2022-08-19T07:19:07;100969.00;;;22.20
15607;BMP180;7865;50.918;4.510;2022-08-19T07:24:16;100977.00;;;22.30
15607;BMP180;7865;50.918;4.510;2022-08-19T07:29:20;100979.00;;;21.60
15607;BMP180;7865;50.918;4.510;2022-08-19T07:34:30;100980.00;;;21.90
15607;BMP180;7865;50.918;4.510;2022-08-19T07:39:34;100971.00;;;22.30
15607;BMP180;7865;50.918;4.510;2022-08-19T07:44:37;100973.00;;;23.50
15607;BMP180;7865;50.918;4.510;2022-08-19T07:49:41;100971.00;;;23.10
15607;BMP180;7865;50.918;4.510;2022-08-19T07:54:43;100965.00;;;23.90
15607;BMP180;7865;50.918;4.510;2022-08-19T07:59:45;100970.00;;;23.40
15607;BMP180;7865;50.918;4.510;2022-08-19T08:04:47;100969.00;;;23.90
15607;BMP180;7865;50.918;4.510;2022-08-19T08:10:08;100971.00;;;24.10
15607;BMP180;7865;50.918;4.510;2022-08-19T08:15:22;100977.00;;;24.50
15607;BMP180;7865;50.918;4.510;2022-08-19T08:20:25;100985.00;;;24.30
15607;BMP180;7865;50.918;4.510;2022-08-19T08:25:28;100982.00;;;23.90
15607;BMP180;7865;50.918;4.510;2022-08-19T08:30:35;100991.00;;;24.60
15607;BMP180;7865;50.918;4.510;2022-08-19T08:35:40;100987.00;;;25.50
15607;BMP180;7865;50.918;4.510;2022-08-19T08:40:53;101004.00;;;24.90
15607;BMP180;7865;50.918;4.510;2022-08-19T08:46:13;101012.00;;;24.30
15607;BMP180;7865;50.918;4.510;2022-08-19T08:51:37;101006.00;;;23.80
15607;BMP180;7865;50.918;4.510;2022-08-19T08:56:46;101016.00;;;23.60
15607;BMP180;7865;50.918;4.510;2022-08-19T09:01:52;101010.00;;;23.60
15607;BMP180;7865;50.918;4.510;2022-08-19T09:07:03;101012.00;;;23.70
15607;BMP180;7865;50.918;4.510;2022-08-19T09:17:43;101016.00;;;24.70
15607;BMP180;7865;50.918;4.510;2022-08-19T09:22:51;101009.00;;;24.90
15607;BMP180;7865;50.918;4.510;2022-08-19T09:27:54;101015.00;;;24.90
15607;BMP180;7865;50.918;4.510;2022-08-19T09:33:03;101018.00;;;25.00
15607;BMP180;7865;50.918;4.510;2022-08-19T09:38:06;101023.00;;;24.60
15607;BMP180;7865;50.918;4.510;2022-08-19T09:43:10;101016.00;;;24.60
15607;BMP180;7865;50.918;4.510;2022-08-19T09:48:14;101024.00;;;24.60
15607;BMP180;7865;50.918;4.510;2022-08-19T09:53:24;101026.00;;;24.40
15607;BMP180;7865;50.918;4.510;2022-08-19T09:58:26;101023.00;;;24.50
15607;BMP180;7865;50.918;4.510;2022-08-19T10:03:30;101021.00;;;24.80
15607;BMP180;7865;50.918;4.510;2022-08-19T10:08:36;101011.00;;;25.20
15607;BMP180;7865;50.918;4.510;2022-08-19T10:13:38;101015.00;;;25.50
15607;BMP180;7865;50.918;4.510;2022-08-19T10:18:41;101014.00;;;25.60
15607;BMP180;7865;50.918;4.510;2022-08-19T10:23:54;101015.00;;;26.20
15607;BMP180;7865;50.918;4.510;2022-08-19T10:28:57;101009.00;;;26.90
15607;BMP180;7865;50.918;4.510;2022-08-19T10:34:00;100995.00;;;26.70
15607;BMP180;7865;50.918;4.510;2022-08-19T10:39:07;100999.00;;;27.30
15607;BMP180;7865;50.918;4.510;2022-08-19T10:44:12;100989.00;;;28.00
15607;BMP180;7865;50.918;4.510;2022-08-19T10:49:14;100992.00;;;28.30
15607;BMP180;7865;50.918;4.510;2022-08-19T10:54:18;100985.00;;;28.30
15607;BMP180;7865;50.918;4.510;2022-08-19T10:59:32;100997.00;;;28.00
15607;BMP180;7865;50.918;4.510;2022-08-19T11:04:38;100990.00;;;27.80
15607;BMP180;7865;50.918;4.510;2022-08-19T11:09:42;100988.00;;;27.90
15607;BMP180;7865;50.918;4.510;2022-08-19T11:14:44;101001.00;;;27.70
15607;BMP180;7865;50.918;4.510;2022-08-19T11:19:46;101001.00;;;27.30
15607;BMP180;7865;50.918;4.510;2022-08-19T11:24:50;101010.00;;;26.90
15607;BMP180;7865;50.918;4.510;2022-08-19T11:29:52;101006.00;;;27.40
15607;BMP180;7865;50.918;4.510;2022-08-19T11:34:54;101010.00;;;26.60
15607;BMP180;7865;50.918;4.510;2022-08-19T11:39:56;101005.00;;;25.70
15607;BMP180;7865;50.918;4.510;2022-08-19T11:44:58;101001.00;;;26.50
15607;BMP180;7865;50.918;4.510;2022-08-19T11:50:00;101000.00;;;27.40
15607;BMP180;7865;50.918;4.510;2022-08-19T11:55:02;101010.00;;;27.10
15607;BMP180;7865;50.918;4.510;2022-08-19T12:00:05;101004.00;;;27.30
15607;BMP180;7865;50.918;4.510;2022-08-19T12:05:09;100998.00;;;27.40
15607;BMP180;7865;50.918;4.510;2022-08-19T12:10:13;100999.00;;;27.30
15607;BMP180;7865;50.918;4.510;2022-08-19T12:15:20;101000.00;;;27.50
15607;BMP180;7865;50.918;4.510;2022-08-19T12:20:23;100998.00;;;28.90
15607;BMP180;7865;50.918;4.510;2022-08-19T12:25:25;100993.00;;;29.90
15607;BMP180;7865;50.918;4.510;2022-08-19T12:30:27;100996.00;;;30.80
15607;BMP180;7865;50.918;4.510;2022-08-19T12:35:29;100996.00;;;30.70
15607;BMP180;7865;50.918;4.510;2022-08-19T12:40:32;100991.00;;;30.10
15607;BMP180;7865;50.918;4.510;2022-08-19T12:45:34;100984.00;;;30.30
15607;BMP180;7865;50.918;4.510;2022-08-19T12:50:43;100975.00;;;30.60
15607;BMP180;7865;50.918;4.510;2022-08-19T12:55:47;100970.00;;;30.50
15607;BMP180;7865;50.918;4.510;2022-08-19T13:00:51;100955.00;;;31.40
15607;BMP180;7865;50.918;4.510;2022-08-19T13:06:29;100962.00;;;30.20
15607;BMP180;7865;50.918;4.510;2022-08-19T13:11:31;100948.00;;;30.10
15607;BMP180;7865;50.918;4.510;2022-08-19T13:16:36;100944.00;;;29.60
15607;BMP180;7865;50.918;4.510;2022-08-19T13:21:39;100944.00;;;30.00
15607;BMP180;7865;50.918;4.510;2022-08-19T13:26:44;100941.00;;;29.10
15607;BMP180;7865;50.918;4.510;2022-08-19T13:31:46;100936.00;;;28.50
15607;BMP180;7865;50.918;4.510;2022-08-19T13:37:07;100921.00;;;29.80
15607;BMP180;7865;50.918;4.510;2022-08-19T13:42:09;100909.00;;;32.70
15607;BMP180;7865;50.918;4.510;2022-08-19T13:47:12;100917.00;;;34.80
15607;BMP180;7865;50.918;4.510;2022-08-19T13:52:16;100919.00;;;35.20
15607;BMP180;7865;50.918;4.510;2022-08-19T13:57:18;100906.00;;;35.60
15607;BMP180;7865;50.918;4.510;2022-08-19T14:02:20;100922.00;;;33.30
15607;BMP180;7865;50.918;4.510;2022-08-19T14:07:22;100901.00;;;31.80
15607;BMP180;7865;50.918;4.510;2022-08-19T14:12:25;100918.00;;;35.60
15607;BMP180;7865;50.918;4.510;2022-08-19T14:17:29;100918.00;;;31.70
15607;BMP180;7865;50.918;4.510;2022-08-19T14:22:31;100919.00;;;29.90
15607;BMP180;7865;50.918;4.510;2022-08-19T14:27:35;100907.00;;;29.30
15607;BMP180;7865;50.918;4.510;2022-08-19T14:32:37;100919.00;;;28.10
15607;BMP180;7865;50.918;4.510;2022-08-19T14:37:39;100940.00;;;26.90
15607;BMP180;7865;50.918;4.510;2022-08-19T14:42:59;100944.00;;;26.30
15607;BMP180;7865;50.918;4.510;2022-08-19T14:48:07;100938.00;;;26.10
15607;BMP180;7865;50.918;4.510;2022-08-19T14:53:20;100942.00;;;26.00
15607;BMP180;7865;50.918;4.510;2022-08-19T14:58:22;100945.00;;;27.00
15607;BMP180;7865;50.918;4.510;2022-08-19T15:03:30;100950.00;;;27.50
15607;BMP180;7865;50.918;4.510;2022-08-19T15:08:36;100944.00;;;27.50
15607;BMP180;7865;50.918;4.510;2022-08-19T15:13:38;100953.00;;;27.70
15607;BMP180;7865;50.918;4.510;2022-08-19T15:18:41;100959.00;;;27.80
15607;BMP180;7865;50.918;4.510;2022-08-19T15:23:48;100960.00;;;28.30
15607;BMP180;7865;50.918;4.510;2022-08-19T15:28:51;100960.00;;;28.20
15607;BMP180;7865;50.918;4.510;2022-08-19T15:33:57;100968.00;;;27.60
15607;BMP180;7865;50.918;4.510;2022-08-19T15:39:00;100966.00;;;27.70
15607;BMP180;7865;50.918;4.510;2022-08-19T15:44:06;100962.00;;;28.30
15607;BMP180;7865;50.918;4.510;2022-08-19T15:49:13;100968.00;;;27.10
15607;BMP180;7865;50.918;4.510;2022-08-19T15:54:19;100969.00;;;25.90
15607;BMP180;7865;50.918;4.510;2022-08-19T15:59:22;100978.00;;;25.00
15607;BMP180;7865;50.918;4.510;2022-08-19T16:04:48;100969.00;;;24.70
15607;BMP180;7865;50.918;4.510;2022-08-19T16:10:10;100984.00;;;24.30
15607;BMP180;7865;50.918;4.510;2022-08-19T16:15:29;100972.00;;;24.10
15607;BMP180;7865;50.918;4.510;2022-08-19T16:20:31;100977.00;;;24.10
15607;BMP180;7865;50.918;4.510;2022-08-19T16:25:36;100981.00;;;24.20
15607;BMP180;7865;50.918;4.510;2022-08-19T16:30:39;100976.00;;;24.30
15607;BMP180;7865;50.918;4.510;2022-08-19T16:35:41;100964.00;;;23.90
15607;BMP180;7865;50.918;4.510;2022-08-19T16:40:43;100970.00;;;23.80
15607;BMP180;7865;50.918;4.510;2022-08-19T16:45:48;100964.00;;;23.90
15607;BMP180;7865;50.918;4.510;2022-08-19T16:50:53;100971.00;;;24.30
15607;BMP180;7865;50.918;4.510;2022-08-19T16:56:01;100963.00;;;24.50
15607;BMP180;7865;50.918;4.510;2022-08-19T17:01:05;100967.00;;;24.40
15607;BMP180;7865;50.918;4.510;2022-08-19T17:06:15;100968.00;;;24.10
15607;BMP180;7865;50.918;4.510;2022-08-19T17:11:22;100989.00;;;23.80
15607;BMP180;7865;50.918;4.510;2022-08-19T17:16:27;100985.00;;;23.60
15607;BMP180;7865;50.918;4.510;2022-08-19T17:21:31;100984.00;;;23.50
15607;BMP180;7865;50.918;4.510;2022-08-19T17:26:37;100984.00;;;23.50
15607;BMP180;7865;50.918;4.510;2022-08-19T17:31:46;100973.00;;;23.30
15607;BMP180;7865;50.918;4.510;2022-08-19T17:36:48;100976.00;;;23.00
15607;BMP180;7865;50.918;4.510;2022-08-19T17:41:50;100972.00;;;22.80
15607;BMP180;7865;50.918;4.510;2022-08-19T17:46:52;100981.00;;;22.70
15607;BMP180;7865;50.918;4.510;2022-08-19T17:51:55;100984.00;;;22.50
15607;BMP180;7865;50.918;4.510;2022-08-19T17:56:58;100988.00;;;22.40
15607;BMP180;7865;50.918;4.510;2022-08-19T18:02:00;100990.00;;;22.40
15607;BMP180;7865;50.918;4.510;2022-08-19T18:07:02;100982.00;;;22.40
15607;BMP180;7865;50.918;4.510;2022-08-19T18:12:06;101001.00;;;22.20
15607;BMP180;7865;50.918;4.510;2022-08-19T18:17:11;100996.00;;;22.00
15607;BMP180;7865;50.918;4.510;2022-08-19T18:22:45;101003.00;;;21.70
15607;BMP180;7865;50.918;4.510;2022-08-19T18:27:53;101014.00;;;21.20
15607;BMP180;7865;50.918;4.510;2022-08-19T18:32:59;101012.00;;;20.80
15607;BMP180;7865;50.918;4.510;2022-08-19T18:38:02;101025.00;;;20.60
15607;BMP180;7865;50.918;4.510;2022-08-19T18:43:26;101030.00;;;20.40
15607;BMP180;7865;50.918;4.510;2022-08-19T18:48:29;101033.00;;;20.30
15607;BMP180;7865;50.918;4.510;2022-08-19T18:53:50;101035.00;;;20.40
15607;BMP180;7865;50.918;4.510;2022-08-19T18:58:52;101040.00;;;20.40
15607;BMP180;7865;50.918;4.510;2022-08-19T19:03:54;101041.00;;;20.40
15607;BMP180;7865;50.918;4.510;2022-08-19T19:08:57;101039.00;;;20.40
15607;BMP180;7865;50.918;4.510;2022-08-19T19:14:07;101038.00;;;20.40
15607;BMP180;7865;50.918;4.510;2022-08-19T19:19:33;101031.00;;;20.30
15607;BMP180;7865;50.918;4.510;2022-08-19T19:24:37;101040.00;;;20.30
15607;BMP180;7865;50.918;4.510;2022-08-19T19:29:40;101044.00;;;20.30
15607;BMP180;7865;50.918;4.510;2022-08-19T19:34:44;101037.00;;;20.30
15607;BMP180;7865;50.918;4.510;2022-08-19T19:39:46;101048.00;;;20.30
15607;BMP180;7865;50.918;4.510;2022-08-19T19:44:53;101052.00;;;20.20
15607;BMP180;7865;50.918;4.510;2022-08-19T19:49:55;101057.00;;;20.10
15607;BMP180;7865;50.918;4.510;2022-08-19T19:55:15;101059.00;;;19.90
15607;BMP180;7865;50.918;4.510;2022-08-19T20:00:21;101061.00;;;19.80
15607;BMP180;7865;50.918;4.510;2022-08-19T20:05:23;101068.00;;;19.70
15607;BMP180;7865;50.918;4.510;2022-08-19T20:10:25;101061.00;;;19.70
15607;BMP180;7865;50.918;4.510;2022-08-19T20:15:27;101071.00;;;19.60
15607;BMP180;7865;50.918;4.510;2022-08-19T20:20:30;101075.00;;;19.70
15607;BMP180;7865;50.918;4.510;2022-08-19T20:25:32;101069.00;;;19.70
15607;BMP180;7865;50.918;4.510;2022-08-19T20:30:35;101067.00;;;19.60
15607;BMP180;7865;50.918;4.510;2022-08-19T20:35:41;101065.00;;;19.60
15607;BMP180;7865;50.918;4.510;2022-08-19T20:40:44;101065.00;;;19.50
15607;BMP180;7865;50.918;4.510;2022-08-19T20:45:46;101061.00;;;19.50
15607;BMP180;7865;50.918;4.510;2022-08-19T20:50:48;101067.00;;;19.40
15607;BMP180;7865;50.918;4.510;2022-08-19T20:55:50;101071.00;;;19.40
15607;BMP180;7865;50.918;4.510;2022-08-19T21:00:55;101067.00;;;19.20
15607;BMP180;7865;50.918;4.510;2022-08-19T21:05:58;101065.00;;;19.10
15607;BMP180;7865;50.918;4.510;2022-08-19T21:11:01;101071.00;;;19.00
15607;BMP180;7865;50.918;4.510;2022-08-19T21:16:06;101062.00;;;19.00
15607;BMP180;7865;50.918;4.510;2022-08-19T21:21:10;101069.00;;;19.00
15607;BMP180;7865;50.918;4.510;2022-08-19T21:26:12;101070.00;;;19.00
15607;BMP180;7865;50.918;4.510;2022-08-19T21:31:14;101069.00;;;19.10
15607;BMP180;7865;50.918;4.510;2022-08-19T21:36:17;101074.00;;;19.10
15607;BMP180;7865;50.918;4.510;2022-08-19T21:41:19;101074.00;;;19.10
15607;BMP180;7865;50.918;4.510;2022-08-19T21:46:21;101072.00;;;19.20
15607;BMP180;7865;50.918;4.510;2022-08-19T21:51:23;101075.00;;;19.20
15607;BMP180;7865;50.918;4.510;2022-08-19T21:56:26;101076.00;;;19.20
15607;BMP180;7865;50.918;4.510;2022-08-19T22:01:28;101076.00;;;19.20
15607;BMP180;7865;50.918;4.510;2022-08-19T22:06:30;101076.00;;;19.20
15607;BMP180;7865;50.918;4.510;2022-08-19T22:11:33;101069.00;;;19.20
15607;BMP180;7865;50.918;4.510;2022-08-19T22:16:37;101075.00;;;19.10
15607;BMP180;7865;50.918;4.510;2022-08-19T22:21:39;101079.00;;;19.10
15607;BMP180;7865;50.918;4.510;2022-08-19T22:26:42;101075.00;;;19.00
15607;BMP180;7865;50.918;4.510;2022-08-19T22:31:43;101079.00;;;19.00
15607;BMP180;7865;50.918;4.510;2022-08-19T22:36:55;101083.00;;;19.00
15607;BMP180;7865;50.918;4.510;2022-08-19T22:41:58;101088.00;;;18.90
15607;BMP180;7865;50.918;4.510;2022-08-19T22:47:00;101094.00;;;18.90
15607;BMP180;7865;50.918;4.510;2022-08-19T22:52:03;101085.00;;;18.90
15607;BMP180;7865;50.918;4.510;2022-08-19T22:57:21;101081.00;;;18.80
15607;BMP180;7865;50.918;4.510;2022-08-19T23:02:28;101086.00;;;18.80
15607;BMP180;7865;50.918;4.510;2022-08-19T23:07:30;101088.00;;;18.70
15607;BMP180;7865;50.918;4.510;2022-08-19T23:12:35;101081.00;;;18.70
15607;BMP180;7865;50.918;4.510;2022-08-19T23:17:41;101085.00;;;18.70
15607;BMP180;7865;50.918;4.510;2022-08-19T23:22:45;101088.00;;;18.60
15607;BMP180;7865;50.918;4.510;2022-08-19T23:27:50;101101.00;;;18.40
15607;BMP180;7865;50.918;4.510;2022-08-19T23:33:26;101092.00;;;18.20
15607;BMP180;7865;50.918;4.510;2022-08-19T23:38:49;101093.00;;;18.00
15607;BMP180;7865;50.918;4.510;2022-08-19T23:43:53;101087.00;;;17.90
15607;BMP180;7865;50.918;4.510;2022-08-19T23:48:56;101085.00;;;17.70
15607;BMP180;7865;50.918;4.510;2022-08-19T23:53:58;101089.00;;;17.70
15607;BMP180;7865;50.918;4.510;2022-08-19T23:59:00;101095.00;;;17.60
